Agenda, Kansas
Current Conditions -  °F | °C
As of 7:55 PM on Saturday 20 Dec 2014 (Local Time) from KCNK Reporting Station
Clear Clear  
Wind Chill: 30°   Ceiling: Unl
Heat Index: 40°   Visibility: 10mi
Dew Point: 37°   Wind: 20mph
Humidity: 89%   Direction: 190°S
Pressure: 30.01"   Gusts: NA
Location:  39.71°N, 97.43°W
Report Text: KCNK 210155Z AUTO 19017KT 10SM CLR 04/03 A3001 RMK AO2 SLP174 T00440028 $
Loading
Personal Weather Stations






























Interactive Weather Map New forecast layout! Learn more

10-Day Weather Forecast

Advertisements
Track Severe Weather on mobile